Nur fliegen ist schöner ....

Willkommen beim Flugservice Bautzen GmbH

Wir sind eine nach europäischen Richtlinien zugelassene Flugschule und lizenziertes Luftfahrtunternehmen. Bei uns können sie nicht nur Rundflüge über die Oberlausitz oder Sachsen buchen, sondern in unserer Flugschule selber das Fliegen erlernen. Erfahrene Fluglehrer stehen ihnen dabei zur Seite.

Wir bieten Ihnen außerdem spezielle Flüge zur Vermessung oder Fotoflüge für Luftbildaufnahmen an. In Zusammenarbeit mit dem Fallschirmsportclub Dresden und dem Cottbuser Fallschirmsportclub setzen wir am Flugplatz Bautzen und Neuhausen Fallschirmspringer ab.
Schauen sie sich in Ruhe bei uns um und wenn sie Fragen haben oder weitere Informationen benötigen, scheuen sie sich nicht Kontakt mit uns aufzunehmen.

Rundflüge können sie ganz leicht auch online in unserem Shop buchen.

Terminkalender

Letzter Monat April 2018 Nächster Monat
Mo Di Mi Do Fr Sa So
week 13 1
week 14 2 3 4 5 6 7 8
week 15 9 10 11 12 13 14 15
week 16 16 17 18 19 20 21 22
week 17 23 24 25 26 27 28 29
week 18 30

Flugwetterinfo

[Quelle: ADDS]
METAR
EDDC 201950Z 17008KT CAVOK 20/11 Q1020 NOSIG =
TAF
EDDC 201700Z 2018/2118 18006KT CAVOK BECMG 2104/2106 26005KT BECMG 2108/2110 32008KT =
SR / SS: 03:55 / 18:06 UTC (EDAB Flugplatz Bautzen 2018-04-20)

Webcam EDAB

Webcam EDAB
Flugservice Bautzen GmbH, Kornmarkt 34, 02625 Bautzen  Telefon: +49 (3591) 211105, Telefax: +49 (3591) 274512, E-Mail:  flugservice(at)fsbautzen.de